Time;durP1;ratioP1;P1;durP2;ratioP2;P2;SDS_P1;SDS_P2;PMS_P1;PMS_P2;Temp;Humidity;BMP_temperature;BMP_pressure;BME280_temperature;BME280_humidity;BME280_pressure;Samples;Min_cycle;Max_cycle;Signal;HPM_P1;HPM_P2
2023/01/05 00:01:07;;;;;;;7.60;3.55;;;17.70;59.60;;;;;;5056669;28;20584;-63
2023/01/05 00:03:33;;;;;;;5.40;2.92;;;17.70;59.70;;;;;;5056519;28;20182;-63
2023/01/05 00:06:11;;;;;;;6.97;2.47;;;17.60;59.50;;;;;;5055988;28;20175;-63
2023/01/05 00:08:37;;;;;;;10.40;3.17;;;17.60;59.60;;;;;;5056403;28;20679;-64
2023/01/05 00:22:33;;;;;;;8.02;3.08;;;17.60;59.60;;;;;;5056507;28;20575;-62
2023/01/05 00:25:09;;;;;;;9.13;3.00;;;17.60;59.60;;;;;;5055323;28;20593;-62
2023/01/05 00:27:35;;;;;;;8.02;3.63;;;17.60;59.60;;;;;;5056208;28;20174;-62
2023/01/05 00:30:01;;;;;;;7.53;3.30;;;17.50;59.50;;;;;;5056437;28;20209;-62
2023/01/05 00:32:27;;;;;;;7.40;2.92;;;17.50;59.50;;;;;;5055568;28;20297;-62
2023/01/05 00:34:59;;;;;;;7.30;2.70;;;17.50;59.50;;;;;;5056079;28;20271;-62
2023/01/05 00:37:26;;;;;;;8.52;2.83;;;17.50;59.50;;;;;;5056174;28;20603;-63
2023/01/05 00:39:52;;;;;;;7.20;3.20;;;17.50;59.50;;;;;;5055243;28;20186;-63
2023/01/05 00:42:17;;;;;;;8.63;3.45;;;17.50;59.50;;;;;;5056191;28;20179;-63
2023/01/05 00:44:43;;;;;;;7.10;3.17;;;17.50;59.50;;;;;;5055599;28;20167;-63
2023/01/05 00:47:09;;;;;;;9.50;2.90;;;17.50;59.50;;;;;;5055309;28;20187;-62
2023/01/05 00:49:34;;;;;;;6.93;2.80;;;17.50;59.50;;;;;;5055642;28;20178;-62
2023/01/05 00:52:00;;;;;;;9.15;3.17;;;17.50;59.40;;;;;;5055567;28;20260;-62
2023/01/05 00:54:25;;;;;;;7.35;2.97;;;17.50;59.40;;;;;;5055285;28;20258;-62
2023/01/05 00:56:51;;;;;;;7.55;2.97;;;17.50;59.40;;;;;;5055601;28;20270;-62
2023/01/05 00:59:16;;;;;;;7.38;3.13;;;17.40;59.40;;;;;;5055621;28;20182;-62
2023/01/05 01:01:49;;;;;;;7.10;3.10;;;17.40;59.50;;;;;;5054700;28;20178;-63
2023/01/05 01:04:14;;;;;;;8.82;3.03;;;17.40;59.40;;;;;;5056048;28;20225;-62
2023/01/05 01:06:40;;;;;;;8.73;3.13;;;17.40;59.40;;;;;;5053848;28;20175;-62
2023/01/05 01:09:05;;;;;;;9.10;3.33;;;17.40;59.40;;;;;;5054933;28;20325;-62
2023/01/05 01:11:31;;;;;;;9.25;3.50;;;17.50;59.50;;;;;;5055198;28;20194;-62
2023/01/05 01:13:57;;;;;;;8.45;3.10;;;17.40;59.30;;;;;;5055559;28;20631;-62
2023/01/05 01:16:22;;;;;;;9.30;3.22;;;17.40;59.40;;;;;;5054752;28;20533;-62
2023/01/05 01:18:48;;;;;;;9.60;3.05;;;17.40;59.30;;;;;;5054877;28;20289;-62
2023/01/05 01:21:13;;;;;;;9.10;3.20;;;17.40;59.30;;;;;;5055162;28;20211;-62
2023/01/05 01:23:39;;;;;;;6.97;2.60;;;17.40;59.30;;;;;;5054131;28;20175;-62
2023/01/05 01:26:05;;;;;;;8.27;3.47;;;17.40;59.30;;;;;;5055292;28;20175;-62
2023/01/05 01:28:31;;;;;;;9.65;2.78;;;17.40;59.30;;;;;;5054298;28;20656;-62
2023/01/05 01:30:56;;;;;;;7.63;2.70;;;17.40;59.30;;;;;;5055099;28;20194;-62
2023/01/05 01:33:22;;;;;;;7.20;2.83;;;17.40;59.30;;;;;;5054897;28;20203;-62
2023/01/05 01:35:47;;;;;;;8.30;3.03;;;17.30;59.20;;;;;;5053769;28;20634;-62
2023/01/05 01:38:13;;;;;;;8.27;3.08;;;17.30;59.20;;;;;;5055189;28;20649;-62
2023/01/05 01:40:39;;;;;;;8.63;3.35;;;17.30;59.20;;;;;;5054813;28;20175;-63
2023/01/05 01:43:19;;;;;;;8.93;3.00;;;17.30;59.20;;;;;;5054281;28;20179;-63
2023/01/05 01:45:45;;;;;;;8.07;3.22;;;17.30;59.20;;;;;;5054634;28;20172;-62
2023/01/05 01:48:13;;;;;;;7.68;3.03;;;17.30;59.20;;;;;;5054684;28;20198;-62
2023/01/05 01:50:50;;;;;;;10.38;2.90;;;17.30;59.20;;;;;;5052675;28;20175;-62
2023/01/05 01:53:36;;;;;;;6.68;2.80;;;17.30;59.20;;;;;;5054508;28;20218;-62
2023/01/05 01:56:02;;;;;;;7.50;2.78;;;17.30;59.20;;;;;;5054424;28;20536;-62
2023/01/05 01:58:29;;;;;;;8.10;3.28;;;17.30;59.20;;;;;;5053781;28;20248;-62
2023/01/05 02:00:55;;;;;;;7.13;2.95;;;17.30;59.20;;;;;;5053280;28;20183;-62
2023/01/05 02:03:20;;;;;;;8.90;3.00;;;17.30;59.20;;;;;;5054622;28;20175;-63
2023/01/05 02:05:46;;;;;;;10.10;3.38;;;17.20;59.20;;;;;;5053460;28;20655;-63
2023/01/05 02:08:13;;;;;;;7.90;3.22;;;17.30;59.20;;;;;;5054587;28;20181;-63
2023/01/05 02:11:17;;;;;;;12.27;3.72;;;17.20;59.20;;;;;;5053666;28;20186;-62
2023/01/05 02:13:52;;;;;;;8.98;3.08;;;17.20;59.10;;;;;;5032072;28;20253;-62
2023/01/05 02:16:43;;;;;;;6.63;2.67;;;17.20;59.20;;;;;;5016408;28;20179;-63
2023/01/05 02:19:30;;;;;;;7.97;2.45;;;17.20;59.20;;;;;;5039886;28;20262;-62
2023/01/05 02:22:17;;;;;;;9.63;3.00;;;17.20;59.10;;;;;;5054336;28;20167;-63
2023/01/05 02:25:07;;;;;;;7.78;3.13;;;17.20;59.10;;;;;;5053203;28;20179;-62
2023/01/05 02:27:45;;;;;;;8.65;3.35;;;17.20;59.10;;;;;;5052710;28;20537;-62
2023/01/05 02:30:43;;;;;;;7.47;2.65;;;17.20;59.10;;;;;;5054146;28;20232;-62
2023/01/05 02:33:30;;;;;;;9.35;3.08;;;17.20;59.10;;;;;;5052001;28;20222;-62
2023/01/05 02:36:12;;;;;;;6.88;2.97;;;17.20;59.20;;;;;;5053814;28;20202;-63
2023/01/05 02:38:51;;;;;;;6.10;2.83;;;17.20;59.20;;;;;;5053487;28;20211;-62
2023/01/05 02:41:47;;;;;;;7.90;2.63;;;17.20;59.10;;;;;;5037282;28;20569;-63
2023/01/05 02:44:17;;;;;;;8.15;3.03;;;17.20;59.10;;;;;;5052833;28;20183;-63
2023/01/05 02:46:43;;;;;;;10.73;3.40;;;17.20;59.20;;;;;;5052692;28;20167;-62
2023/01/05 02:49:09;;;;;;;8.57;2.85;;;17.20;59.10;;;;;;5053811;28;20182;-63
2023/01/05 02:51:36;;;;;;;7.68;2.95;;;17.20;59.10;;;;;;5053569;28;20168;-62
2023/01/05 02:54:19;;;;;;;8.35;3.67;;;17.10;59.00;;;;;;5052910;28;20190;-62
2023/01/05 02:57:08;;;;;;;8.52;3.33;;;17.10;59.10;;;;;;5036900;28;20183;-62
2023/01/05 02:59:36;;;;;;;11.75;3.55;;;17.10;59.10;;;;;;5052111;28;20179;-62
2023/01/05 03:02:10;;;;;;;6.22;2.58;;;17.10;59.10;;;;;;5051772;28;20176;-62
2023/01/05 03:04:40;;;;;;;9.18;2.80;;;17.10;59.10;;;;;;5036013;28;20175;-63
2023/01/05 03:07:08;;;;;;;10.25;3.05;;;17.20;59.20;;;;;;5052665;28;20183;-63
2023/01/05 03:09:38;;;;;;;7.05;3.20;;;17.10;59.10;;;;;;5035503;28;20187;-63
2023/01/05 03:15:29;;;;;;;8.05;3.22;;;17.10;59.10;;;;;;5052512;28;20181;-60
2023/01/05 03:17:59;;;;;;;8.88;2.95;;;17.10;59.10;;;;;;5051785;28;20175;-61
2023/01/05 03:20:27;;;;;;;7.65;3.35;;;17.10;59.10;;;;;;5052226;28;20193;-62
2023/01/05 03:36:58;;;;;;;7.88;2.88;;;17.10;59.10;;;;;;5037182;28;20182;-62
2023/01/05 03:39:25;;;;;;;6.97;2.25;;;17.00;59.10;;;;;;5035448;28;20175;-63
2023/01/05 03:41:51;;;;;;;9.82;3.67;;;17.10;59.10;;;;;;5052573;28;20189;-62
2023/01/05 03:44:16;;;;;;;8.90;3.22;;;17.00;59.10;;;;;;5034436;28;20171;-62
2023/01/05 03:46:42;;;;;;;8.02;2.63;;;17.00;59.00;;;;;;5051340;28;20179;-62
2023/01/05 03:49:07;;;;;;;6.35;2.85;;;17.00;59.00;;;;;;5034347;28;20175;-62
2023/01/05 03:51:33;;;;;;;6.93;2.95;;;17.00;59.00;;;;;;5052571;28;20179;-61
2023/01/05 03:53:58;;;;;;;8.88;3.05;;;17.00;59.00;;;;;;5053148;28;20186;-61
2023/01/05 03:56:24;;;;;;;7.43;3.13;;;17.00;59.10;;;;;;5052341;28;20167;-61
2023/01/05 03:58:49;;;;;;;5.53;2.78;;;17.00;59.10;;;;;;5052571;28;20175;-61
2023/01/05 04:01:15;;;;;;;9.00;3.65;;;17.00;59.10;;;;;;5052735;28;20167;-61
2023/01/05 04:03:40;;;;;;;7.88;3.40;;;17.00;59.10;;;;;;5051592;28;20171;-62
2023/01/05 04:06:06;;;;;;;7.95;3.33;;;17.00;59.10;;;;;;5052862;28;20561;-62
2023/01/05 04:08:31;;;;;;;8.10;3.08;;;17.00;59.10;;;;;;5052417;28;20171;-61
2023/01/05 04:11:02;;;;;;;7.05;3.05;;;17.00;59.10;;;;;;5052352;28;20186;-61
2023/01/05 04:13:27;;;;;;;5.43;2.60;;;17.00;59.10;;;;;;5035510;28;20561;-61
2023/01/05 04:15:53;;;;;;;7.75;2.75;;;17.00;59.10;;;;;;5052281;28;20174;-61
2023/01/05 04:18:19;;;;;;;7.25;2.92;;;17.00;59.10;;;;;;5051668;28;20277;-61
2023/01/05 04:20:44;;;;;;;5.70;2.20;;;17.00;59.10;;;;;;5052552;28;20546;-61
2023/01/05 04:23:10;;;;;;;5.95;2.72;;;17.00;59.10;;;;;;5052730;28;20617;-62
2023/01/05 04:25:35;;;;;;;9.55;3.03;;;17.00;59.10;;;;;;5051466;28;20176;-60
2023/01/05 04:28:01;;;;;;;6.65;2.90;;;17.00;59.10;;;;;;5052460;28;20171;-61
2023/01/05 04:30:26;;;;;;;8.23;2.90;;;17.00;59.10;;;;;;5052376;28;20182;-61
2023/01/05 04:32:52;;;;;;;6.18;2.78;;;17.00;59.10;;;;;;5051155;28;20213;-62
2023/01/05 04:35:18;;;;;;;7.97;2.67;;;17.00;59.10;;;;;;5052434;28;20168;-62
2023/01/05 04:37:44;;;;;;;6.13;3.00;;;17.00;59.10;;;;;;5052164;28;20172;-62
2023/01/05 04:40:10;;;;;;;5.75;2.47;;;17.00;59.10;;;;;;5052719;28;20175;-62
2023/01/05 04:42:36;;;;;;;7.68;2.92;;;16.90;59.10;;;;;;5055698;28;20233;-61
2023/01/05 04:45:01;;;;;;;6.35;3.28;;;16.90;59.00;;;;;;5055922;28;20179;-61
2023/01/05 04:47:27;;;;;;;6.03;2.75;;;16.90;59.10;;;;;;5055154;28;20183;-61
2023/01/05 04:49:52;;;;;;;6.88;2.63;;;16.90;59.10;;;;;;5055809;28;20178;-61
2023/01/05 04:52:18;;;;;;;6.32;2.92;;;16.90;59.10;;;;;;5055383;28;20207;-61
2023/01/05 04:54:43;;;;;;;7.78;2.83;;;17.00;59.10;;;;;;5055747;28;20171;-61
2023/01/05 04:57:09;;;;;;;7.10;2.83;;;16.90;59.00;;;;;;5055932;28;20182;-61
2023/01/05 04:59:35;;;;;;;8.10;3.55;;;16.90;59.10;;;;;;5054858;28;20194;-61
2023/01/05 05:02:00;;;;;;;7.53;3.17;;;16.90;59.10;;;;;;5055589;28;20174;-61
2023/01/05 05:04:26;;;;;;;10.40;3.22;;;16.90;59.10;;;;;;5055816;28;20175;-63
2023/01/05 05:06:52;;;;;;;8.15;2.90;;;16.90;59.00;;;;;;5054540;28;20182;-61
2023/01/05 05:09:17;;;;;;;7.03;2.58;;;16.90;59.10;;;;;;5055634;28;20191;-62
2023/01/05 05:11:43;;;;;;;5.93;2.45;;;16.90;59.00;;;;;;5055098;28;20167;-61
2023/01/05 05:14:08;;;;;;;6.68;2.80;;;16.90;59.00;;;;;;5054751;28;20178;-60
2023/01/05 05:16:34;;;;;;;8.45;2.95;;;16.90;59.00;;;;;;5055003;28;20630;-61
2023/01/05 05:18:59;;;;;;;7.03;3.00;;;16.90;59.00;;;;;;5055270;28;20219;-61
2023/01/05 05:21:25;;;;;;;9.98;3.20;;;16.90;59.00;;;;;;5055193;28;20182;-61
2023/01/05 05:23:50;;;;;;;7.82;3.20;;;16.90;59.00;;;;;;5055102;28;20186;-61
2023/01/05 05:26:16;;;;;;;7.32;2.35;;;16.90;59.00;;;;;;5055198;28;20545;-61
2023/01/05 05:28:41;;;;;;;9.43;3.08;;;16.90;58.90;;;;;;5054184;28;20661;-61
2023/01/05 05:31:07;;;;;;;6.00;2.88;;;16.90;59.00;;;;;;5055067;28;20212;-62
2023/01/05 05:33:32;;;;;;;7.05;2.80;;;16.90;59.00;;;;;;5054899;28;20211;-62
2023/01/05 05:35:58;;;;;;;7.65;2.78;;;16.90;59.00;;;;;;5054472;28;20167;-62
2023/01/05 05:38:23;;;;;;;6.50;2.70;;;16.90;59.00;;;;;;5055165;28;20638;-62
2023/01/05 05:40:49;;;;;;;7.25;3.03;;;16.90;59.00;;;;;;5054619;28;20678;-63
2023/01/05 05:43:14;;;;;;;8.57;3.08;;;16.80;58.90;;;;;;5054169;28;20171;-62
2023/01/05 05:45:40;;;;;;;9.43;2.83;;;16.80;58.90;;;;;;5054471;28;20171;-62
2023/01/05 05:48:05;;;;;;;7.18;2.60;;;16.80;58.90;;;;;;5054746;28;20614;-63
2023/01/05 05:50:32;;;;;;;5.47;2.38;;;16.80;58.90;;;;;;5054008;28;20630;-62
2023/01/05 05:52:57;;;;;;;7.40;2.90;;;16.80;58.90;;;;;;5053995;28;20215;-62
2023/01/05 05:55:23;;;;;;;8.68;2.78;;;16.80;58.90;;;;;;5054903;28;20229;-62
2023/01/05 05:57:48;;;;;;;8.18;2.88;;;16.80;58.90;;;;;;5053685;28;20532;-61
2023/01/05 06:00:14;;;;;;;7.13;2.70;;;16.80;58.90;;;;;;5054464;28;20175;-62
2023/01/05 06:02:39;;;;;;;7.10;2.45;;;16.80;58.90;;;;;;5053797;28;20194;-62
2023/01/05 06:05:05;;;;;;;8.15;3.08;;;16.80;58.90;;;;;;5054603;28;20171;-62
2023/01/05 06:07:31;;;;;;;5.40;2.58;;;16.70;58.90;;;;;;5054007;28;20629;-62
2023/01/05 06:09:56;;;;;;;4.72;2.00;;;16.80;58.90;;;;;;5053582;28;20236;-62
2023/01/05 06:12:22;;;;;;;5.70;2.60;;;16.80;59.00;;;;;;5054257;28;20207;-62
2023/01/05 06:14:47;;;;;;;7.32;2.60;;;16.80;59.00;;;;;;5053001;28;20167;-62
2023/01/05 06:17:13;;;;;;;6.95;2.78;;;16.80;59.00;;;;;;5053738;28;20308;-64
2023/01/05 06:19:38;;;;;;;6.40;2.85;;;16.80;58.90;;;;;;5053745;28;20305;-63
2023/01/05 06:22:04;;;;;;;6.18;2.55;;;16.80;59.00;;;;;;5054229;28;20252;-63
2023/01/05 06:24:30;;;;;;;7.90;2.50;;;16.80;59.00;;;;;;5053573;28;20264;-63
2023/01/05 06:26:55;;;;;;;5.68;2.45;;;16.80;59.00;;;;;;5054025;28;20190;-62
2023/01/05 06:29:21;;;;;;;7.00;2.60;;;16.80;58.90;;;;;;5053950;28;20171;-63
2023/01/05 06:31:46;;;;;;;5.43;2.55;;;16.80;59.00;;;;;;5053092;28;20175;-63
2023/01/05 06:34:12;;;;;;;6.57;2.38;;;16.80;59.00;;;;;;5053955;28;20260;-64
2023/01/05 06:36:37;;;;;;;7.90;2.40;;;16.70;58.90;;;;;;5053564;28;20258;-63
2023/01/05 06:39:03;;;;;;;9.50;3.05;;;16.70;58.90;;;;;;5053098;28;20186;-63
2023/01/05 06:41:29;;;;;;;8.07;2.55;;;16.70;58.90;;;;;;5053640;28;20171;-64
2023/01/05 06:43:55;;;;;;;4.60;2.35;;;16.70;59.00;;;;;;5053468;28;20209;-63
2023/01/05 06:46:20;;;;;;;5.80;2.78;;;16.70;58.90;;;;;;5052877;28;20630;-63
2023/01/05 06:48:46;;;;;;;6.07;2.55;;;16.70;59.00;;;;;;5053529;28;20269;-63
2023/01/05 06:51:12;;;;;;;7.53;2.40;;;16.70;59.00;;;;;;5053603;28;20167;-62
2023/01/05 06:53:37;;;;;;;7.03;3.05;;;16.80;59.00;;;;;;5052658;28;20215;-62
2023/01/05 06:56:03;;;;;;;5.18;2.70;;;16.70;59.00;;;;;;5053445;28;20163;-62
2023/01/05 06:58:28;;;;;;;8.15;2.72;;;16.70;58.90;;;;;;5053506;28;20637;-62
2023/01/05 07:00:54;;;;;;;4.68;2.13;;;16.70;58.90;;;;;;5052318;28;20179;-62
2023/01/05 07:03:19;;;;;;;5.70;2.33;;;16.70;59.00;;;;;;5053501;28;20254;-63
2023/01/05 07:05:45;;;;;;;5.68;2.63;;;16.70;59.00;;;;;;5053023;28;20669;-63
2023/01/05 07:08:10;;;;;;;6.93;2.95;;;16.70;59.00;;;;;;5052678;28;20185;-63
2023/01/05 07:10:36;;;;;;;4.85;2.55;;;16.70;58.90;;;;;;5053031;28;20178;-62
2023/01/05 07:13:01;;;;;;;4.50;2.28;;;16.70;58.90;;;;;;5052587;28;20238;-63
2023/01/05 07:15:27;;;;;;;8.50;2.60;;;16.70;59.00;;;;;;5053108;28;20179;-61
2023/01/05 07:17:52;;;;;;;8.60;2.53;;;16.70;59.00;;;;;;5052944;28;20258;-61
2023/01/05 07:20:18;;;;;;;6.82;2.70;;;16.70;59.00;;;;;;5052392;28;20631;-62
2023/01/05 07:22:43;;;;;;;6.90;2.67;;;16.70;59.00;;;;;;5052906;28;20599;-61
2023/01/05 07:25:10;;;;;;;5.07;2.35;;;16.70;59.00;;;;;;5053065;28;20258;-62
2023/01/05 07:27:35;;;;;;;4.55;2.50;;;16.70;59.00;;;;;;5051946;28;20661;-62
2023/01/05 07:30:01;;;;;;;5.68;2.38;;;16.70;59.00;;;;;;5053003;28;20182;-62
2023/01/05 07:32:26;;;;;;;9.30;3.20;;;16.70;59.00;;;;;;5052844;28;20222;-62
2023/01/05 07:34:52;;;;;;;6.70;3.05;;;16.70;59.00;;;;;;5051945;28;20174;-63
2023/01/05 07:37:17;;;;;;;7.60;2.65;;;16.70;59.00;;;;;;5053054;28;20186;-63
2023/01/05 07:39:43;;;;;;;6.38;2.50;;;16.70;59.00;;;;;;5052463;28;20171;-63
2023/01/05 07:42:08;;;;;;;7.10;2.83;;;16.70;59.00;;;;;;5052197;28;20179;-63
2023/01/05 07:44:34;;;;;;;7.00;2.72;;;16.70;59.00;;;;;;5052366;28;20202;-63
2023/01/05 07:47:00;;;;;;;4.70;2.10;;;16.70;59.10;;;;;;5053652;28;20262;-62
2023/01/05 07:49:26;;;;;;;6.45;2.50;;;16.70;59.10;;;;;;5052152;28;20250;-64
2023/01/05 07:51:51;;;;;;;6.00;2.70;;;16.70;59.10;;;;;;5052493;28;20252;-62
2023/01/05 07:54:17;;;;;;;6.28;2.58;;;16.60;59.00;;;;;;5052845;28;20206;-61
2023/01/05 07:56:42;;;;;;;4.50;2.30;;;16.60;59.00;;;;;;5051766;28;20693;-62
2023/01/05 07:59:08;;;;;;;7.93;2.88;;;16.60;59.00;;;;;;5052814;28;20175;-67
2023/01/05 08:01:33;;;;;;;10.80;2.95;;;16.60;59.20;;;;;;5052474;28;20173;-65
2023/01/05 08:03:59;;;;;;;8.15;2.78;;;16.70;59.20;;;;;;5051998;28;20175;-65
2023/01/05 08:06:25;;;;;;;7.35;3.00;;;16.70;59.20;;;;;;5053459;28;20515;-72
2023/01/05 08:08:50;;;;;;;5.45;2.28;;;16.70;59.20;;;;;;5052415;28;20277;-75
2023/01/05 08:11:17;;;;;;;6.03;2.50;;;16.70;59.50;;;;;;5051843;28;20209;-77
2023/01/05 08:13:58;;;;;;;5.00;2.40;;;16.70;59.40;;;;;;5052231;28;20741;-65
2023/01/05 08:16:24;;;;;;;9.35;2.95;;;16.70;60.40;;;;;;5055087;28;20221;-69
2023/01/05 08:18:49;;;;;;;8.07;2.45;;;16.70;59.60;;;;;;5056022;28;20223;-71
2023/01/05 08:21:15;;;;;;;4.63;2.15;;;16.70;59.60;;;;;;5056391;28;20545;-69
2023/01/05 08:23:40;;;;;;;7.63;2.92;;;16.70;59.60;;;;;;5055195;28;20699;-68
2023/01/05 08:26:11;;;;;;;10.32;2.40;;;16.70;59.60;;;;;;5056225;28;20193;-68
2023/01/05 08:28:37;;;;;;;6.50;2.90;;;16.70;59.80;;;;;;5056207;28;20259;-67
2023/01/05 08:31:06;;;;;;;9.23;2.83;;;16.70;59.90;;;;;;5055812;28;20254;-68
2023/01/05 08:33:32;;;;;;;7.82;3.05;;;16.70;59.80;;;;;;5055977;28;20215;-67
2023/01/05 08:35:57;;;;;;;6.43;2.20;;;16.70;60.00;;;;;;5056439;28;20622;-68
2023/01/05 08:38:23;;;;;;;4.80;2.13;;;16.70;60.00;;;;;;5055519;28;20213;-68
2023/01/05 08:40:48;;;;;;;5.57;2.45;;;16.70;59.90;;;;;;5055581;28;20295;-69
2023/01/05 08:43:14;;;;;;;6.25;2.20;;;16.70;59.90;;;;;;5056262;28;20179;-68
2023/01/05 08:45:40;;;;;;;6.35;2.33;;;16.70;59.90;;;;;;5055255;28;20175;-67
2023/01/05 08:48:05;;;;;;;6.90;2.30;;;16.70;60.00;;;;;;5055981;28;20216;-68
2023/01/05 08:50:31;;;;;;;6.30;2.80;;;16.70;60.00;;;;;;5055751;28;20183;-68
2023/01/05 08:52:57;;;;;;;6.88;2.30;;;16.70;60.10;;;;;;5054996;28;20221;-69
2023/01/05 08:55:22;;;;;;;6.53;2.60;;;16.70;60.20;;;;;;5055799;28;20310;-70
2023/01/05 08:57:48;;;;;;;5.30;2.45;;;16.70;60.00;;;;;;5055652;28;20257;-69
2023/01/05 09:00:16;;;;;;;5.35;2.53;;;16.70;60.10;;;;;;5054914;28;20171;-68
2023/01/05 09:02:42;;;;;;;7.25;2.75;;;16.70;60.00;;;;;;5055451;28;20175;-65
2023/01/05 09:05:07;;;;;;;7.38;2.10;;;16.70;60.50;;;;;;5055616;28;20171;-66
2023/01/05 09:07:33;;;;;;;7.55;2.35;;;16.70;60.60;;;;;;5054710;28;20183;-66
2023/01/05 09:09:58;;;;;;;6.00;2.42;;;16.70;60.60;;;;;;5055442;28;20195;-66
2023/01/05 09:12:24;;;;;;;7.82;2.90;;;16.70;60.50;;;;;;5055442;28;20640;-66
2023/01/05 09:14:49;;;;;;;5.55;2.22;;;16.70;61.20;;;;;;5054798;28;21062;-67
2023/01/05 09:17:15;;;;;;;7.38;2.20;;;16.60;60.30;;;;;;5055389;28;20181;-67
2023/01/05 09:19:41;;;;;;;6.68;2.40;;;16.60;60.30;;;;;;5054264;28;20261;-67
2023/01/05 09:22:06;;;;;;;8.57;2.50;;;16.60;60.30;;;;;;5055327;28;20544;-68
2023/01/05 09:24:32;;;;;;;6.20;2.25;;;16.60;60.40;;;;;;5054857;28;20175;-67
2023/01/05 09:26:57;;;;;;;7.93;2.45;;;16.60;60.30;;;;;;5053535;28;20664;-67
2023/01/05 09:29:23;;;;;;;7.28;2.78;;;16.60;60.40;;;;;;5055335;28;20229;-66
2023/01/05 09:31:48;;;;;;;6.63;3.03;;;16.60;60.30;;;;;;5054852;28;20174;-66
2023/01/05 09:34:14;;;;;;;7.53;2.50;;;16.60;60.40;;;;;;5054520;28;20178;-66
2023/01/05 09:36:39;;;;;;;7.60;2.33;;;16.50;60.30;;;;;;5053739;28;20171;-66
2023/01/05 09:39:05;;;;;;;7.95;2.65;;;16.60;60.30;;;;;;5055001;28;20656;-66
2023/01/05 09:41:53;;;;;;;8.60;2.50;;;16.60;60.30;;;;;;5053943;28;20178;-66
2023/01/05 09:44:26;;;;;;;5.10;2.17;;;16.50;60.40;;;;;;5053911;28;20185;-66
2023/01/05 09:46:51;;;;;;;5.75;2.00;;;16.50;60.30;;;;;;5054520;28;20519;-66
2023/01/05 09:49:19;;;;;;;10.15;3.03;;;16.50;60.20;;;;;;5052836;28;20202;-66
2023/01/05 09:51:45;;;;;;;8.10;3.20;;;16.60;60.30;;;;;;5053195;28;20179;-66
2023/01/05 09:54:16;;;;;;;6.20;2.75;;;16.50;60.30;;;;;;5054921;28;20245;-66
2023/01/05 09:56:42;;;;;;;8.15;2.95;;;16.50;60.30;;;;;;5052822;28;20262;-66
2023/01/05 09:59:15;;;;;;;9.85;2.47;;;16.50;60.20;;;;;;5053656;28;20175;-67
2023/01/05 10:01:41;;;;;;;6.40;2.85;;;16.50;60.20;;;;;;5053174;28;20182;-67
2023/01/05 10:04:13;;;;;;;7.05;2.50;;;16.50;60.30;;;;;;5053989;28;20179;-67
2023/01/05 10:06:42;;;;;;;5.97;2.35;;;16.50;60.20;;;;;;5054415;28;20207;-66
2023/01/05 10:09:11;;;;;;;6.35;2.22;;;16.50;60.30;;;;;;5052659;28;20175;-66
2023/01/05 10:14:39;;;;;;;6.55;2.28;;;16.50;60.20;;;;;;5053275;28;20197;-68
2023/01/05 10:17:23;;;;;;;5.75;2.67;;;16.50;60.30;;;;;;5052695;28;20262;-67
2023/01/05 10:19:49;;;;;;;6.82;2.33;;;16.60;60.20;;;;;;5053740;28;20685;-67
2023/01/05 10:22:24;;;;;;;8.27;2.72;;;16.60;60.10;;;;;;5052974;28;20661;-67
2023/01/05 10:24:54;;;;;;;4.55;2.30;;;16.60;60.00;;;;;;5051585;28;20261;-68
2023/01/05 10:27:25;;;;;;;7.43;2.38;;;16.60;59.90;;;;;;5052990;28;20171;-67
2023/01/05 10:29:59;;;;;;;7.63;2.35;;;16.70;60.00;;;;;;5053618;28;20175;-66
2023/01/05 10:32:28;;;;;;;5.65;2.13;;;16.70;60.50;;;;;;5052444;28;20219;-66
2023/01/05 10:34:58;;;;;;;8.57;2.50;;;16.70;60.20;;;;;;5053096;28;20606;-66
2023/01/05 10:37:55;;;;;;;4.50;2.00;;;16.70;60.10;;;;;;5052758;28;20502;-66
2023/01/05 10:40:38;;;;;;;5.70;2.30;;;16.70;60.10;;;;;;5052409;28;20171;-69
2023/01/05 10:43:23;;;;;;;7.60;2.55;;;16.70;60.10;;;;;;5053860;28;20210;-76
2023/01/05 10:45:49;;;;;;;8.32;2.50;;;16.70;60.20;;;;;;5031652;28;20180;-75
2023/01/05 10:48:16;;;;;;;7.68;2.90;;;16.70;60.10;;;;;;5032723;28;20649;-78
2023/01/05 10:50:43;;;;;;;4.93;2.22;;;16.70;60.10;;;;;;5032195;28;20630;-75
2023/01/05 10:53:13;;;;;;;5.93;2.35;;;16.70;60.10;;;;;;5031759;28;20704;-75
2023/01/05 10:55:50;;;;;;;7.18;3.25;;;16.70;60.10;;;;;;5033299;28;20175;-75
2023/01/05 10:58:32;;;;;;;6.57;2.70;;;16.70;60.20;;;;;;5031786;28;20262;-73
2023/01/05 11:01:00;;;;;;;4.93;2.20;;;16.80;60.30;;;;;;5033685;28;20183;-75
2023/01/05 11:03:38;;;;;;;5.97;2.88;;;16.70;60.00;;;;;;5032354;28;20175;-76
2023/01/05 11:06:03;;;;;;;5.80;2.40;;;16.80;60.10;;;;;;5032840;28;20179;-76
2023/01/05 11:08:29;;;;;;;6.68;2.30;;;16.70;60.00;;;;;;5032440;28;20274;-77
2023/01/05 11:11:06;;;;;;;3.70;1.95;;;16.80;60.00;;;;;;5032148;28;20184;-75
2023/01/05 11:13:39;;;;;;;4.78;2.15;;;16.80;60.10;;;;;;5031283;28;20215;-74
2023/01/05 11:16:11;;;;;;;5.82;2.30;;;16.80;60.10;;;;;;5033465;28;20186;-74
2023/01/05 11:18:56;;;;;;;7.28;2.75;;;16.80;59.90;;;;;;5031733;28;20228;-72
2023/01/05 11:21:27;;;;;;;7.55;3.00;;;16.80;60.00;;;;;;5032454;28;20584;-75
2023/01/05 11:23:57;;;;;;;6.57;2.67;;;16.80;59.90;;;;;;5032754;28;20557;-73
2023/01/05 11:26:28;;;;;;;8.20;2.50;;;16.80;60.10;;;;;;5032684;28;20176;-74
2023/01/05 11:29:07;;;;;;;4.50;2.22;;;16.80;60.00;;;;;;5032656;28;20192;-76
2023/01/05 11:31:41;;;;;;;5.70;2.53;;;16.80;60.00;;;;;;5032831;28;20237;-72
2023/01/05 11:34:53;;;;;;;6.28;2.45;;;16.80;60.00;;;;;;5032605;28;20219;-75
2023/01/05 11:37:27;;;;;;;4.55;1.92;;;16.80;60.00;;;;;;5019121;28;20180;-76
2023/01/05 11:39:53;;;;;;;5.80;3.08;;;16.80;59.90;;;;;;5032104;28;20552;-77
2023/01/05 11:42:23;;;;;;;7.72;2.50;;;16.80;60.00;;;;;;5032482;28;20175;-74
2023/01/05 11:44:54;;;;;;;4.55;2.22;;;16.80;60.00;;;;;;5032631;28;20646;-68
2023/01/05 11:47:42;;;;;;;6.88;2.58;;;16.80;59.90;;;;;;5032151;28;20175;-68
2023/01/05 11:50:23;;;;;;;7.38;2.45;;;16.80;59.80;;;;;;5032337;28;20183;-67
2023/01/05 11:52:53;;;;;;;5.32;2.60;;;16.80;60.00;;;;;;5031520;28;20218;-68
2023/01/05 11:55:19;;;;;;;7.63;2.65;;;16.80;60.20;;;;;;5030923;28;20207;-67
2023/01/05 11:57:45;;;;;;;8.02;2.38;;;16.80;60.40;;;;;;5032478;28;20203;-75
2023/01/05 12:00:37;;;;;;;8.43;2.83;;;16.80;60.40;;;;;;5032931;28;20172;-76
2023/01/05 12:03:21;;;;;;;4.10;2.30;;;16.80;60.20;;;;;;5031627;28;20196;-76
2023/01/05 12:05:57;;;;;;;5.00;2.45;;;16.80;60.10;;;;;;5033266;28;20234;-73
2023/01/05 12:08:26;;;;;;;6.75;2.58;;;16.80;60.10;;;;;;5031850;28;20179;-68
2023/01/05 12:11:04;;;;;;;5.15;2.22;;;16.80;60.40;;;;;;5032890;28;20182;-66
2023/01/05 12:13:44;;;;;;;6.47;2.60;;;16.80;60.50;;;;;;5033430;28;20265;-68
2023/01/05 12:16:19;;;;;;;7.07;2.55;;;16.80;60.80;;;;;;5032089;28;20174;-76
2023/01/05 12:19:13;;;;;;;8.65;2.22;;;16.80;60.50;;;;;;5032182;28;20225;-74
2023/01/05 12:22:04;;;;;;;6.47;2.35;;;16.80;60.40;;;;;;5031336;28;20183;-72
2023/01/05 12:24:51;;;;;;;7.07;2.70;;;16.80;60.50;;;;;;5020487;28;20234;-74
2023/01/05 12:27:32;;;;;;;7.90;2.42;;;17.00;60.60;;;;;;5031348;28;20271;-77
2023/01/05 12:30:20;;;;;;;6.65;2.00;;;17.00;60.60;;;;;;5030332;28;20180;-73
2023/01/05 12:33:21;;;;;;;5.43;2.13;;;17.10;60.60;;;;;;5030855;28;20679;-73
2023/01/05 12:35:55;;;;;;;5.13;1.98;;;17.30;60.40;;;;;;5031062;28;20184;-74
2023/01/05 12:39:00;;;;;;;3.97;1.70;;;17.50;60.10;;;;;;5031783;28;20206;-65
2023/01/05 12:41:42;;;;;;;5.90;2.22;;;17.80;59.40;;;;;;5032134;28;20207;-65
2023/01/05 12:44:20;;;;;;;3.97;1.90;;;18.00;59.30;;;;;;5030719;28;20187;-65
2023/01/05 12:47:05;;;;;;;5.43;1.90;;;18.20;59.00;;;;;;5031150;28;20174;-76
2023/01/05 12:49:38;;;;;;;3.75;2.15;;;18.40;58.70;;;;;;5032238;28;20176;-75
2023/01/05 12:52:31;;;;;;;5.57;2.42;;;18.50;58.40;;;;;;5030479;28;20188;-74
2023/01/05 12:55:19;;;;;;;6.18;2.25;;;18.70;58.10;;;;;;5032308;28;20180;-73
2023/01/05 12:57:58;;;;;;;4.55;2.00;;;18.90;57.80;;;;;;5030224;28;20263;-77
2023/01/05 13:00:24;;;;;;;5.18;2.83;;;18.90;57.70;;;;;;5030962;28;20640;-75
2023/01/05 13:02:58;;;;;;;5.05;2.13;;;19.00;57.60;;;;;;5034041;28;20197;-76
2023/01/05 13:05:42;;;;;;;3.67;1.77;;;19.00;57.50;;;;;;5034384;28;20183;-76
2023/01/05 13:08:19;;;;;;;4.63;2.05;;;19.00;57.40;;;;;;5036215;28;20187;-75
2023/01/05 13:11:00;;;;;;;6.32;2.30;;;19.00;57.30;;;;;;5034240;28;20167;-74
2023/01/05 13:13:40;;;;;;;5.78;1.83;;;19.00;57.30;;;;;;5034585;28;20212;-75
2023/01/05 13:16:23;;;;;;;6.13;2.25;;;18.90;57.50;;;;;;5036431;28;20178;-75
2023/01/05 13:19:00;;;;;;;5.28;2.20;;;18.90;57.60;;;;;;5033227;28;20736;-74
2023/01/05 13:21:26;;;;;;;5.15;2.42;;;18.80;57.70;;;;;;5034446;28;20179;-75
2023/01/05 13:24:01;;;;;;;3.70;2.00;;;18.70;57.80;;;;;;5033785;28;20234;-75
2023/01/05 13:26:29;;;;;;;5.47;2.67;;;18.70;57.90;;;;;;5033721;28;20179;-73
2023/01/05 13:28:54;;;;;;;3.65;2.00;;;18.70;57.90;;;;;;5035096;28;20180;-76
2023/01/05 13:31:32;;;;;;;4.53;2.25;;;18.70;58.00;;;;;;5035459;28;20167;-76